createdAt,value
2023-06-19T00:00:59.374Z,7.10
2023-06-19T00:03:26.054Z,7.05
2023-06-19T00:05:52.830Z,7.07
2023-06-19T00:08:20.607Z,6.30
2023-06-19T00:10:47.115Z,6.75
2023-06-19T00:13:13.627Z,7.68
2023-06-19T00:15:40.221Z,7.28
2023-06-19T00:18:06.829Z,7.18
2023-06-19T00:20:34.323Z,6.83
2023-06-19T00:23:00.844Z,6.95
2023-06-19T00:25:27.400Z,6.78
2023-06-19T00:27:54.725Z,6.63
2023-06-19T00:30:21.701Z,6.47
2023-06-19T00:32:48.515Z,6.40
2023-06-19T00:35:16.004Z,7.18
2023-06-19T00:37:43.245Z,7.93
2023-06-19T00:40:15.298Z,7.97
2023-06-19T00:42:41.751Z,6.55
2023-06-19T00:45:08.792Z,6.40
2023-06-19T00:47:35.470Z,6.70
2023-06-19T00:50:02.229Z,6.57
2023-06-19T00:52:28.757Z,8.82
2023-06-19T00:54:55.669Z,6.95
2023-06-19T00:57:22.910Z,8.07
2023-06-19T00:59:50.169Z,7.53
2023-06-19T01:02:16.930Z,7.82
2023-06-19T01:04:43.667Z,7.47
2023-06-19T01:07:15.858Z,8.38
2023-06-19T01:09:52.157Z,7.80
2023-06-19T01:12:24.147Z,8.20
2023-06-19T01:15:05.666Z,8.00
2023-06-19T01:17:33.163Z,8.25
2023-06-19T01:20:00.208Z,7.70
2023-06-19T01:22:30.872Z,7.90
2023-06-19T01:24:57.910Z,8.88
2023-06-19T01:27:26.204Z,9.95
2023-06-19T01:29:53.484Z,8.35
2023-06-19T01:32:28.445Z,8.93
2023-06-19T01:34:57.074Z,8.47
2023-06-19T01:37:26.222Z,9.45
2023-06-19T01:39:53.725Z,8.52
2023-06-19T01:42:21.379Z,8.60
2023-06-19T01:44:48.749Z,8.85
2023-06-19T01:47:15.404Z,7.87
2023-06-19T01:49:41.890Z,8.70
2023-06-19T01:52:09.832Z,8.60
2023-06-19T01:54:36.434Z,8.25
2023-06-19T01:57:03.706Z,7.93
2023-06-19T01:59:30.378Z,9.37
2023-06-19T02:01:56.841Z,9.07
2023-06-19T02:04:23.360Z,9.55
2023-06-19T02:06:49.936Z,9.25
2023-06-19T02:09:16.438Z,9.63
2023-06-19T02:11:43.071Z,9.47
2023-06-19T02:14:11.879Z,11.18
2023-06-19T02:16:38.980Z,10.15
2023-06-19T02:19:05.719Z,10.50
2023-06-19T02:21:32.216Z,10.65
2023-06-19T02:23:58.877Z,9.97
2023-06-19T02:26:26.217Z,10.77
2023-06-19T02:28:52.724Z,9.32
2023-06-19T02:31:19.301Z,10.10
2023-06-19T02:33:45.809Z,11.80
2023-06-19T02:36:12.285Z,11.83
2023-06-19T02:38:38.795Z,11.65
2023-06-19T02:41:05.271Z,12.40
2023-06-19T02:43:31.821Z,14.10
2023-06-19T02:45:58.387Z,12.80
2023-06-19T02:48:25.273Z,12.70
2023-06-19T02:50:51.757Z,12.70
2023-06-19T02:53:18.367Z,14.38
2023-06-19T02:55:45.011Z,15.13
2023-06-19T02:58:11.579Z,22.00
2023-06-19T03:00:38.202Z,18.60
2023-06-19T03:03:04.870Z,17.85
2023-06-19T03:05:31.391Z,18.55
2023-06-19T03:07:57.896Z,19.35
2023-06-19T03:10:24.876Z,20.73
2023-06-19T03:12:51.829Z,20.73
2023-06-19T03:15:18.464Z,20.10
2023-06-19T03:17:45.028Z,21.48
2023-06-19T03:20:12.036Z,21.75
2023-06-19T03:22:42.212Z,21.80
2023-06-19T03:25:09.364Z,21.43
2023-06-19T03:27:36.035Z,22.65
2023-06-19T03:30:02.640Z,19.33
2023-06-19T03:32:30.752Z,19.25
2023-06-19T03:34:58.910Z,17.92
2023-06-19T03:37:26.270Z,20.80
2023-06-19T03:39:52.793Z,19.52
2023-06-19T03:42:19.326Z,20.02
2023-06-19T03:44:45.946Z,17.77
2023-06-19T03:47:12.574Z,18.25
2023-06-19T03:49:39.139Z,15.67
2023-06-19T03:52:06.160Z,16.05
2023-06-19T03:54:32.636Z,13.80
2023-06-19T03:56:59.161Z,13.80
2023-06-19T03:59:26.070Z,10.95
2023-06-19T04:01:52.604Z,10.43
2023-06-19T04:04:19.264Z,10.02
2023-06-19T04:06:45.834Z,9.95
2023-06-19T04:09:12.322Z,9.07
2023-06-19T04:11:39.000Z,9.57
2023-06-19T04:14:05.726Z,8.20
2023-06-19T04:16:32.274Z,8.05
2023-06-19T04:18:58.972Z,8.00
2023-06-19T04:21:27.330Z,8.20
2023-06-19T04:23:54.245Z,9.32
2023-06-19T04:26:20.834Z,10.43
2023-06-19T04:28:47.376Z,9.48
2023-06-19T04:31:14.066Z,11.48
2023-06-19T04:33:40.726Z,10.48
2023-06-19T04:36:07.413Z,9.77
2023-06-19T04:38:34.021Z,10.93
2023-06-19T04:41:00.612Z,11.60
2023-06-19T04:43:27.423Z,11.93
2023-06-19T04:45:54.011Z,11.15
2023-06-19T04:48:20.611Z,13.75
2023-06-19T04:50:47.222Z,17.80
2023-06-19T04:53:13.895Z,16.50
2023-06-19T04:55:40.743Z,17.77
2023-06-19T04:58:07.279Z,15.90
2023-06-19T05:00:33.807Z,19.63
2023-06-19T05:03:00.401Z,18.37
2023-06-19T05:05:31.053Z,17.85
2023-06-19T05:08:01.378Z,17.00
2023-06-19T05:10:28.922Z,16.90
2023-06-19T05:12:55.564Z,18.83
2023-06-19T05:15:22.214Z,18.13
2023-06-19T05:17:48.918Z,19.42
2023-06-19T05:20:15.977Z,17.85
2023-06-19T05:22:42.529Z,18.85
2023-06-19T05:25:09.634Z,19.60
2023-06-19T05:27:36.182Z,18.23
2023-06-19T05:30:02.830Z,17.48
2023-06-19T05:32:29.433Z,18.88
2023-06-19T05:34:56.142Z,19.55
2023-06-19T05:37:22.792Z,19.63
2023-06-19T05:39:50.537Z,18.17
2023-06-19T05:42:17.123Z,19.85
2023-06-19T05:44:43.723Z,20.92
2023-06-19T05:47:10.218Z,20.98
2023-06-19T05:49:36.739Z,20.10
2023-06-19T05:52:03.547Z,21.67
2023-06-19T05:54:30.068Z,20.08
2023-06-19T05:56:56.980Z,21.58
2023-06-19T05:59:23.542Z,20.65
2023-06-19T06:01:51.532Z,21.30
2023-06-19T06:04:18.196Z,20.83
2023-06-19T06:06:44.801Z,19.95
2023-06-19T06:09:11.520Z,22.58
2023-06-19T06:11:38.093Z,22.17
2023-06-19T06:14:04.687Z,22.85
2023-06-19T06:16:31.221Z,22.97
2023-06-19T06:18:58.559Z,22.95
2023-06-19T06:21:25.216Z,25.35
2023-06-19T06:23:51.840Z,23.88
2023-06-19T06:26:18.404Z,24.67
2023-06-19T06:28:45.033Z,26.83
2023-06-19T06:31:11.953Z,28.65
2023-06-19T06:33:38.534Z,26.73
2023-06-19T06:36:07.158Z,24.73
2023-06-19T06:38:35.270Z,26.60
2023-06-19T06:41:01.936Z,24.87
2023-06-19T06:43:28.545Z,24.73
2023-06-19T06:45:55.116Z,25.17
2023-06-19T06:48:22.128Z,27.90
2023-06-19T06:50:48.847Z,26.38
2023-06-19T06:53:15.530Z,29.03
2023-06-19T06:55:42.193Z,27.40
2023-06-19T06:58:08.781Z,28.75
2023-06-19T07:00:35.367Z,28.90
2023-06-19T07:03:02.324Z,27.55
2023-06-19T07:05:29.212Z,30.47
2023-06-19T07:07:55.989Z,30.30
2023-06-19T07:10:23.610Z,29.95
2023-06-19T07:12:50.429Z,29.75
2023-06-19T07:15:17.368Z,27.00
2023-06-19T07:17:47.345Z,30.10
2023-06-19T07:20:15.006Z,27.48
2023-06-19T07:22:43.012Z,26.60
2023-06-19T07:25:11.773Z,26.20
2023-06-19T07:27:38.878Z,27.75
2023-06-19T07:30:06.230Z,25.30
2023-06-19T07:32:32.932Z,26.75
2023-06-19T07:35:00.073Z,28.23
2023-06-19T07:37:26.965Z,26.05
2023-06-19T07:39:54.186Z,31.23
2023-06-19T07:42:21.164Z,30.03
2023-06-19T07:44:47.777Z,31.02
2023-06-19T07:47:18.278Z,30.13
2023-06-19T07:49:45.681Z,31.13
2023-06-19T07:52:12.281Z,29.95
2023-06-19T07:54:51.065Z,31.10
2023-06-19T07:57:17.577Z,27.42
2023-06-19T07:59:44.207Z,27.73
2023-06-19T08:02:10.757Z,25.90
2023-06-19T08:04:37.406Z,25.48
2023-06-19T08:07:04.219Z,24.83
2023-06-19T08:09:30.723Z,27.85
2023-06-19T08:11:58.382Z,27.70
2023-06-19T08:14:24.996Z,28.77
2023-06-19T08:16:51.603Z,26.58
2023-06-19T08:19:18.218Z,34.33
2023-06-19T08:21:44.741Z,27.42
2023-06-19T08:24:11.387Z,29.65
2023-06-19T08:26:37.935Z,31.20
2023-06-19T08:29:04.481Z,32.03
2023-06-19T08:31:31.186Z,26.53
2023-06-19T08:34:00.723Z,32.15
2023-06-19T08:36:27.611Z,31.25
2023-06-19T08:38:54.112Z,30.02
2023-06-19T08:41:21.128Z,30.42
2023-06-19T08:43:48.003Z,31.37
2023-06-19T08:46:19.093Z,33.70
2023-06-19T08:48:48.546Z,30.60
2023-06-19T08:51:15.197Z,32.95
2023-06-19T08:53:57.029Z,31.40
2023-06-19T08:56:24.141Z,31.07
2023-06-19T08:58:51.711Z,29.85
2023-06-19T09:01:19.775Z,34.08
2023-06-19T09:03:49.851Z,29.58
2023-06-19T09:06:20.009Z,25.40
2023-06-19T09:08:46.613Z,26.73
2023-06-19T09:11:13.251Z,30.27
2023-06-19T09:13:39.777Z,27.60
2023-06-19T09:16:08.676Z,26.10
2023-06-19T09:18:49.296Z,29.23
2023-06-19T09:21:20.371Z,26.30
2023-06-19T09:23:47.530Z,26.40
2023-06-19T09:26:17.925Z,25.48
2023-06-19T09:28:44.920Z,22.67
2023-06-19T09:31:11.975Z,25.10
2023-06-19T09:33:41.170Z,24.57
2023-06-19T09:36:08.288Z,23.17
2023-06-19T09:38:38.499Z,23.83
2023-06-19T09:41:06.635Z,21.48
2023-06-19T09:43:43.300Z,23.58
2023-06-19T09:46:12.033Z,22.27
2023-06-19T09:48:45.994Z,21.42
2023-06-19T09:51:30.842Z,22.48
2023-06-19T09:53:59.433Z,20.33
2023-06-19T09:56:26.097Z,23.50
2023-06-19T09:58:55.889Z,23.30
2023-06-19T10:01:23.805Z,20.58
2023-06-19T10:03:50.496Z,18.67
2023-06-19T10:06:18.624Z,18.52
2023-06-19T10:08:46.301Z,20.67
2023-06-19T10:11:16.165Z,19.53
2023-06-19T10:13:43.937Z,21.05
2023-06-19T10:16:23.550Z,21.17
2023-06-19T10:18:51.627Z,20.05
2023-06-19T10:21:22.887Z,20.83
2023-06-19T10:23:57.278Z,18.90
2023-06-19T10:27:03.358Z,20.73
2023-06-19T10:29:40.299Z,21.77
2023-06-19T10:32:08.517Z,20.23
2023-06-19T10:34:36.007Z,22.45
2023-06-19T10:37:03.278Z,21.27
2023-06-19T10:39:31.352Z,20.77
2023-06-19T10:41:57.959Z,19.05
2023-06-19T10:44:24.957Z,21.42
2023-06-19T10:46:53.749Z,21.52
2023-06-19T10:49:22.188Z,20.50
2023-06-19T10:51:49.957Z,19.92
2023-06-19T10:54:17.483Z,18.58
2023-06-19T10:56:44.026Z,15.85
2023-06-19T10:59:12.165Z,17.80
2023-06-19T11:01:40.934Z,19.17
2023-06-19T11:04:09.408Z,17.60
2023-06-19T11:06:37.015Z,18.05
2023-06-19T11:09:04.639Z,15.43
2023-06-19T11:11:46.026Z,19.63
2023-06-19T11:14:14.320Z,16.43
2023-06-19T11:16:46.476Z,18.25
2023-06-19T11:19:21.249Z,19.02
2023-06-19T11:21:50.147Z,19.45
2023-06-19T11:24:17.553Z,19.02
2023-06-19T11:26:46.564Z,16.57
2023-06-19T11:29:26.428Z,18.38
2023-06-19T11:32:10.041Z,19.38
2023-06-19T11:34:38.143Z,18.70
2023-06-19T11:37:18.475Z,16.85
2023-06-19T11:39:46.620Z,14.43
2023-06-19T11:42:13.322Z,17.02
2023-06-19T11:45:04.032Z,14.63
2023-06-19T11:47:34.251Z,18.00
2023-06-19T11:50:01.397Z,16.60
2023-06-19T11:52:28.064Z,13.73
2023-06-19T11:54:54.582Z,17.27
2023-06-19T11:57:21.316Z,17.65
2023-06-19T11:59:47.892Z,15.95
2023-06-19T12:02:14.604Z,17.63
2023-06-19T12:04:41.463Z,16.27
2023-06-19T12:07:08.172Z,19.25
2023-06-19T12:09:34.897Z,18.00
2023-06-19T12:12:01.926Z,15.00
2023-06-19T12:14:28.545Z,15.80
2023-06-19T12:16:55.386Z,17.13
2023-06-19T12:19:22.123Z,17.50
2023-06-19T12:21:48.694Z,14.57
2023-06-19T12:24:15.463Z,16.17
2023-06-19T12:26:42.060Z,15.85
2023-06-19T12:29:08.864Z,14.67
2023-06-19T12:31:36.212Z,14.98
2023-06-19T12:34:13.504Z,15.85
2023-06-19T12:36:50.268Z,16.42
2023-06-19T12:39:16.874Z,16.33
2023-06-19T12:41:43.413Z,17.63
2023-06-19T12:44:10.017Z,15.73
2023-06-19T12:46:36.851Z,15.40
2023-06-19T12:49:03.700Z,15.25
2023-06-19T12:51:30.715Z,14.70
2023-06-19T12:53:57.433Z,13.60
2023-06-19T12:56:24.193Z,14.80
2023-06-19T12:58:50.859Z,14.88
2023-06-19T13:01:17.639Z,16.42
2023-06-19T13:03:44.614Z,14.80
2023-06-19T13:06:11.172Z,15.57
2023-06-19T13:08:37.751Z,14.50
2023-06-19T13:11:05.774Z,14.88
2023-06-19T13:13:32.871Z,17.98
2023-06-19T13:15:59.715Z,15.32
2023-06-19T13:18:26.276Z,15.63
2023-06-19T13:20:52.922Z,14.73
2023-06-19T13:23:19.574Z,15.10
2023-06-19T13:25:46.337Z,15.15
2023-06-19T13:28:12.956Z,15.70
2023-06-19T13:30:39.589Z,14.03
2023-06-19T13:33:06.327Z,15.20
2023-06-19T13:35:33.085Z,13.85
2023-06-19T13:37:59.832Z,12.85
2023-06-19T13:40:26.696Z,12.43
2023-06-19T13:42:53.372Z,13.90
2023-06-19T13:45:20.076Z,13.95
2023-06-19T13:47:46.788Z,12.85
2023-06-19T13:50:13.433Z,10.63
2023-06-19T13:52:42.729Z,12.20
2023-06-19T13:55:09.629Z,13.03
2023-06-19T13:57:36.296Z,13.15
2023-06-19T14:00:03.191Z,11.57
2023-06-19T14:02:29.818Z,11.52
2023-06-19T14:04:56.756Z,15.40
2023-06-19T14:07:23.446Z,12.90
2023-06-19T14:09:50.046Z,15.40
2023-06-19T14:12:16.593Z,15.00
2023-06-19T14:14:43.275Z,17.20
2023-06-19T14:17:09.911Z,14.43
2023-06-19T14:19:36.512Z,14.80
2023-06-19T14:22:03.410Z,14.07
2023-06-19T14:24:30.144Z,13.48
2023-06-19T14:26:56.822Z,12.32
2023-06-19T14:29:23.311Z,12.00
2023-06-19T14:31:52.643Z,13.27
2023-06-19T14:34:21.918Z,12.38
2023-06-19T14:36:48.737Z,10.85
2023-06-19T14:39:15.225Z,12.05
2023-06-19T14:41:41.886Z,12.80
2023-06-19T14:44:08.607Z,12.13
2023-06-19T14:46:39.536Z,12.70
2023-06-19T14:49:11.280Z,13.73
2023-06-19T14:51:37.842Z,10.88
2023-06-19T14:54:04.434Z,11.73
2023-06-19T14:56:31.016Z,13.80
2023-06-19T14:58:57.837Z,16.92
2023-06-19T15:01:24.492Z,15.65
2023-06-19T15:03:51.292Z,11.68
2023-06-19T15:06:17.890Z,12.53
2023-06-19T15:08:44.595Z,10.82
2023-06-19T15:11:11.258Z,12.30
2023-06-19T15:13:37.824Z,15.60
2023-06-19T15:16:04.645Z,13.35
2023-06-19T15:18:31.240Z,12.57
2023-06-19T15:20:57.802Z,11.57
2023-06-19T15:23:24.543Z,13.00
2023-06-19T15:25:51.038Z,12.10
2023-06-19T15:28:17.558Z,12.65
2023-06-19T15:30:44.163Z,12.47
2023-06-19T15:33:11.018Z,12.80
2023-06-19T15:35:37.567Z,14.38
2023-06-19T15:38:06.905Z,14.07
2023-06-19T15:40:33.996Z,13.38
2023-06-19T15:43:00.738Z,12.77
2023-06-19T15:45:27.273Z,12.75
2023-06-19T15:47:53.977Z,12.07
2023-06-19T15:50:20.657Z,13.15
2023-06-19T15:52:47.306Z,12.60
2023-06-19T15:55:14.837Z,14.73
2023-06-19T15:57:41.459Z,13.95
2023-06-19T16:00:08.803Z,15.73
2023-06-19T16:02:35.452Z,14.52
2023-06-19T16:05:02.224Z,15.35
2023-06-19T16:07:28.921Z,14.33
2023-06-19T16:09:56.094Z,16.73
2023-06-19T16:12:23.370Z,13.00
2023-06-19T16:14:49.986Z,13.18
2023-06-19T16:17:16.483Z,13.38
2023-06-19T16:19:43.001Z,13.13
2023-06-19T16:22:09.516Z,14.85
2023-06-19T16:24:36.076Z,12.98
2023-06-19T16:27:02.630Z,14.73
2023-06-19T16:29:29.188Z,13.18
2023-06-19T16:32:08.033Z,12.93
2023-06-19T16:34:36.394Z,13.77
2023-06-19T16:37:03.125Z,13.02
2023-06-19T16:39:29.767Z,13.50
2023-06-19T16:41:56.298Z,12.30
2023-06-19T16:44:22.950Z,12.80
2023-06-19T16:46:50.428Z,15.65
2023-06-19T16:49:18.304Z,17.75
2023-06-19T16:51:45.143Z,14.52
2023-06-19T16:54:11.941Z,15.10
2023-06-19T16:56:38.680Z,15.63
2023-06-19T16:59:05.231Z,14.45
2023-06-19T17:01:31.834Z,15.13
2023-06-19T17:03:58.557Z,13.70
2023-06-19T17:06:25.596Z,14.60
2023-06-19T17:08:52.457Z,13.83
2023-06-19T17:11:21.031Z,13.68
2023-06-19T17:13:47.845Z,13.45
2023-06-19T17:16:14.682Z,14.65
2023-06-19T17:18:41.369Z,15.65
2023-06-19T17:21:07.988Z,14.13
2023-06-19T17:23:35.339Z,14.55
2023-06-19T17:26:02.076Z,13.98
2023-06-19T17:28:28.684Z,13.18
2023-06-19T17:30:55.394Z,14.65
2023-06-19T17:33:22.013Z,16.93
2023-06-19T17:35:48.701Z,14.98
2023-06-19T17:38:15.448Z,13.93
2023-06-19T17:40:42.078Z,12.35
2023-06-19T17:43:08.922Z,13.18
2023-06-19T17:45:36.050Z,14.80
2023-06-19T17:48:02.694Z,14.07
2023-06-19T17:50:29.348Z,19.17
2023-06-19T17:52:55.905Z,13.23
2023-06-19T17:55:22.533Z,13.32
2023-06-19T17:57:49.094Z,13.87
2023-06-19T18:00:15.934Z,12.40
2023-06-19T18:02:42.567Z,13.30
2023-06-19T18:05:09.359Z,18.25
2023-06-19T18:07:37.422Z,13.02
2023-06-19T18:10:04.661Z,12.30
2023-06-19T18:12:31.494Z,13.70
2023-06-19T18:14:57.976Z,12.75
2023-06-19T18:17:24.713Z,13.18
2023-06-19T18:19:51.652Z,13.80
2023-06-19T18:22:18.312Z,12.23
2023-06-19T18:24:44.977Z,14.70
2023-06-19T18:27:11.648Z,12.45
2023-06-19T18:29:38.146Z,13.05
2023-06-19T18:32:05.675Z,12.93
2023-06-19T18:34:32.312Z,12.50
2023-06-19T18:36:58.768Z,12.93
2023-06-19T18:39:25.623Z,13.13
2023-06-19T18:41:52.559Z,14.65
2023-06-19T18:44:19.111Z,14.73
2023-06-19T18:46:45.771Z,12.93
2023-06-19T18:49:12.384Z,13.00
2023-06-19T18:51:38.954Z,11.90
2023-06-19T18:54:05.696Z,13.05
2023-06-19T18:56:32.628Z,14.20
2023-06-19T18:58:59.498Z,11.57
2023-06-19T19:01:26.315Z,12.20
2023-06-19T19:03:53.018Z,11.93
2023-06-19T19:06:19.661Z,13.30
2023-06-19T19:08:46.209Z,12.82
2023-06-19T19:11:12.770Z,14.87
2023-06-19T19:13:39.741Z,13.40
2023-06-19T19:16:06.518Z,11.40
2023-06-19T19:18:33.414Z,14.82
2023-06-19T19:21:00.085Z,15.02
2023-06-19T19:23:26.809Z,13.40
2023-06-19T19:25:53.508Z,11.90
2023-06-19T19:28:20.265Z,13.23
2023-06-19T19:30:47.076Z,14.18
2023-06-19T19:33:13.801Z,12.93
2023-06-19T19:35:40.627Z,12.47
2023-06-19T19:38:07.469Z,12.75
2023-06-19T19:40:34.380Z,15.55
2023-06-19T19:43:01.139Z,12.30
2023-06-19T19:45:28.033Z,14.50
2023-06-19T19:47:54.776Z,14.03
2023-06-19T19:50:21.446Z,14.30
2023-06-19T19:52:48.113Z,12.60
2023-06-19T19:55:14.928Z,12.85
2023-06-19T19:57:41.660Z,13.10
2023-06-19T20:00:09.099Z,12.13
2023-06-19T20:02:35.910Z,13.55
2023-06-19T20:05:02.466Z,12.10
2023-06-19T20:07:29.012Z,12.43
2023-06-19T20:09:55.694Z,13.25
2023-06-19T20:12:22.546Z,13.00
2023-06-19T20:14:49.864Z,13.38
2023-06-19T20:17:16.665Z,12.45
2023-06-19T20:19:43.213Z,12.95
2023-06-19T20:22:12.023Z,13.88
2023-06-19T20:24:39.320Z,28.97
2023-06-19T20:27:06.485Z,14.45
2023-06-19T20:29:33.410Z,13.40
2023-06-19T20:32:00.004Z,13.00
2023-06-19T20:34:26.547Z,14.25
2023-06-19T20:36:53.225Z,14.10
2023-06-19T20:39:19.727Z,12.10
2023-06-19T20:41:46.314Z,14.02
2023-06-19T20:44:12.988Z,13.13
2023-06-19T20:46:39.971Z,14.75
2023-06-19T20:49:06.553Z,13.23
2023-06-19T20:51:33.228Z,12.85
2023-06-19T20:53:59.927Z,14.35
2023-06-19T20:56:26.498Z,13.57
2023-06-19T20:58:53.363Z,11.82
2023-06-19T21:01:23.498Z,13.43
2023-06-19T21:03:50.468Z,13.43
2023-06-19T21:06:17.787Z,13.63
2023-06-19T21:08:44.975Z,14.10
2023-06-19T21:11:11.639Z,14.02
2023-06-19T21:13:38.763Z,13.60
2023-06-19T21:16:05.895Z,12.82
2023-06-19T21:18:32.495Z,15.43
2023-06-19T21:20:59.094Z,14.70
2023-06-19T21:23:25.643Z,14.80
2023-06-19T21:25:52.202Z,12.73
2023-06-19T21:28:18.872Z,14.23
2023-06-19T21:30:45.457Z,15.55
2023-06-19T21:33:12.158Z,14.60
2023-06-19T21:35:38.871Z,13.57
2023-06-19T21:38:05.431Z,14.20
2023-06-19T21:40:31.958Z,15.23
2023-06-19T21:42:58.590Z,15.10
2023-06-19T21:45:25.135Z,16.33
2023-06-19T21:47:52.117Z,14.65
2023-06-19T21:50:18.819Z,15.67
2023-06-19T21:52:45.352Z,15.80
2023-06-19T21:55:12.025Z,15.02
2023-06-19T21:57:46.086Z,14.73
2023-06-19T22:00:16.861Z,16.10
2023-06-19T22:02:43.992Z,14.90
2023-06-19T22:05:13.075Z,17.98
2023-06-19T22:07:39.611Z,15.63
2023-06-19T22:10:06.818Z,14.82
2023-06-19T22:12:33.425Z,15.35
2023-06-19T22:14:59.999Z,13.37
2023-06-19T22:17:26.549Z,14.55
2023-06-19T22:19:53.194Z,14.77
2023-06-19T22:22:19.709Z,16.38
2023-06-19T22:24:46.255Z,15.93
2023-06-19T22:27:12.975Z,16.77
2023-06-19T22:29:39.848Z,15.70
2023-06-19T22:32:06.647Z,17.48
2023-06-19T22:34:33.353Z,17.30
2023-06-19T22:37:00.078Z,16.73
2023-06-19T22:39:27.144Z,16.00
2023-06-19T22:41:53.807Z,17.10
2023-06-19T22:44:20.392Z,16.70
2023-06-19T22:46:46.927Z,21.25
2023-06-19T22:49:13.526Z,17.83
2023-06-19T22:51:41.002Z,17.10
2023-06-19T22:54:07.624Z,16.98
2023-06-19T22:56:34.289Z,21.67
2023-06-19T22:59:00.793Z,17.15
2023-06-19T23:01:27.769Z,18.30
2023-06-19T23:03:54.498Z,19.47
2023-06-19T23:06:21.205Z,16.98
2023-06-19T23:08:47.888Z,16.92
2023-06-19T23:11:14.605Z,17.45
2023-06-19T23:13:41.074Z,20.08
2023-06-19T23:16:08.051Z,17.03
2023-06-19T23:18:34.561Z,18.85
2023-06-19T23:21:01.280Z,17.95
2023-06-19T23:23:28.358Z,19.15
2023-06-19T23:25:54.809Z,18.13
2023-06-19T23:28:21.620Z,21.33
2023-06-19T23:30:48.210Z,17.42
2023-06-19T23:33:14.746Z,16.95
2023-06-19T23:35:41.392Z,18.80
2023-06-19T23:38:09.289Z,18.55
2023-06-19T23:40:35.840Z,17.47
2023-06-19T23:43:02.474Z,19.83
2023-06-19T23:45:29.046Z,17.77
2023-06-19T23:47:55.721Z,19.40
2023-06-19T23:50:22.398Z,17.58
2023-06-19T23:52:49.005Z,16.70
2023-06-19T23:55:15.751Z,18.13
2023-06-19T23:57:42.374Z,16.58
